Terminal Aerodrome Forecast
Issued by NWS Twin Cities, MN

Home | Current Version | Previous Version | Graphics & Text | Print | Product List | Glossary On
Versions: 1 2 3 4 5 6 7 8 9 10 11 12 13 14 15
000
FTUS43 KMPX 241735
TAFEAU
TAF
KEAU 241735Z 2418/2518 03011G20KT 6SM -SN BR SCT015 OVC040
      TEMPO 2418/2422 2SM -SN BKN015
     FM242200 36014G23KT 4SM -SN OVC020
     FM250400 35012G20KT 4SM -SN OVC020
     FM250600 34011KT P6SM OVC040
     FM251400 33011KT P6SM SCT040 SCT120=

USA.gov is the U.S. government's official web portal to all federal, state and local government web resources and services.